Moraine, Ohio
Current Conditions -  °F | °C
As of 2:53 AM on Saturday 25 Oct 2014 (Local Time) from KMGY Reporting Station
Scattered Clouds Scattered Clouds  
Wind Chill: 50°   Ceiling: Unl
Heat Index: 50°   Visibility: 10mi
Dew Point: 42°   Wind: 5mph
Humidity: 74%   Direction: 180°S
Pressure: 30.01"   Gusts: NA
Location:  39.6994°N, 84.2173°W
Report Text: KMGY 250653Z AUTO 18004KT 10SM SCT036 10/06 A3001 RMK AO2 SLP162 T01000056
Loading
Personal Weather Stations






























Interactive Weather Map
Tropical Storm Tracking
New forecast layout! Learn more

10-Day Weather Forecast

Advertisements
Track Severe Weather on mobile